Time;durP1;ratioP1;P1;durP2;ratioP2;P2;SDS_P1;SDS_P2;PMS_P1;PMS_P2;Temp;Humidity;BMP_temperature;BMP_pressure;BME280_temperature;BME280_humidity;BME280_pressure;Samples;Min_cycle;Max_cycle;Signal;HPM_P1;HPM_P2
2022/04/23 00:02:09;;;;;;;0.10;0.10;;;;;;;;;;4856507;29;20133;-87
2022/04/23 00:04:41;;;;;;;0.10;0.10;;;;;;;;;;4856853;29;20045;-87
2022/04/23 00:07:07;;;;;;;0.10;0.10;;;;;;;;;;4857458;29;20050;-86
2022/04/23 00:09:33;;;;;;;0.20;0.20;;;;;;;;;;4856205;29;20181;-86
2022/04/23 00:12:00;;;;;;;0.20;0.20;;;;;;;;;;4855928;29;20042;-86
2022/04/23 00:14:26;;;;;;;0.20;0.20;;;;;;;;;;4855715;29;20053;-85
2022/04/23 00:16:53;;;;;;;0.20;0.20;;;;;;;;;;4855639;29;20128;-87
2022/04/23 00:19:19;;;;;;;0.10;0.10;;;;;;;;;;4839944;29;20045;-86
2022/04/23 00:21:45;;;;;;;0.10;0.10;;;;;;;;;;4855672;29;20046;-87
2022/04/23 00:24:11;;;;;;;0.10;0.10;;;;;;;;;;4855631;29;20258;-86
2022/04/23 00:26:37;;;;;;;0.10;0.10;;;;;;;;;;4855752;29;20046;-86
2022/04/23 00:29:03;;;;;;;0.15;0.15;;;;;;;;;;4855547;29;20042;-87
2022/04/23 00:31:29;;;;;;;0.05;0.05;;;;;;;;;;4839986;29;20052;-87
2022/04/23 00:33:55;;;;;;;0.15;0.15;;;;;;;;;;4855454;29;20384;-85
2022/04/23 00:36:23;;;;;;;0.10;0.10;;;;;;;;;;4855653;29;20054;-85
2022/04/23 00:38:52;;;;;;;0.10;0.10;;;;;;;;;;4840043;29;20052;-86
2022/04/23 00:44:04;;;;;;;0.10;0.10;;;;;;;;;;4853523;29;20054;-87
2022/04/23 00:46:30;;;;;;;0.10;0.10;;;;;;;;;;4855985;29;20261;-86
2022/04/23 00:48:58;;;;;;;0.10;0.10;;;;;;;;;;4855640;29;20341;-86
2022/04/23 00:51:24;;;;;;;0.10;0.10;;;;;;;;;;4839978;29;20057;-87
2022/04/23 00:53:50;;;;;;;0.10;0.10;;;;;;;;;;4855824;29;20398;-87
2022/04/23 00:56:16;;;;;;;0.20;0.20;;;;;;;;;;4855473;29;20324;-85
2022/04/23 00:58:42;;;;;;;0.20;0.20;;;;;;;;;;4839991;29;20119;-86
2022/04/23 01:01:08;;;;;;;0.10;0.10;;;;;;;;;;4840136;29;20449;-86
2022/04/23 01:03:36;;;;;;;0.10;0.10;;;;;;;;;;4839780;29;20053;-87
2022/04/23 01:06:02;;;;;;;0.20;0.20;;;;;;;;;;4839679;29;20053;-87
2022/04/23 01:08:28;;;;;;;0.10;0.10;;;;;;;;;;4839967;29;20041;-87
2022/04/23 01:10:54;;;;;;;0.10;0.10;;;;;;;;;;4840044;29;20049;-87
2022/04/23 01:13:20;;;;;;;0.22;0.22;;;;;;;;;;4840191;29;20106;-86
2022/04/23 01:15:57;;;;;;;0.10;0.10;;;;;;;;;;4839703;29;20467;-85
2022/04/23 01:18:23;;;;;;;0.10;0.10;;;;;;;;;;4840068;29;20081;-86
2022/04/23 01:20:49;;;;;;;0.10;0.10;;;;;;;;;;4855106;29;20084;-86
2022/04/23 01:23:15;;;;;;;0.10;0.10;;;;;;;;;;4839731;29;20046;-84
2022/04/23 01:25:41;;;;;;;0.17;0.17;;;;;;;;;;4839515;29;20049;-87
2022/04/23 01:28:07;;;;;;;0.60;0.60;;;;;;;;;;4824523;29;20042;-86
2022/04/23 01:30:33;;;;;;;0.10;0.10;;;;;;;;;;4839826;29;20092;-86
2022/04/23 01:32:59;;;;;;;0.10;0.10;;;;;;;;;;4841817;29;20042;-86
2022/04/23 01:35:25;;;;;;;0.50;0.30;;;;;;;;;;4843153;29;20376;-86
2022/04/23 01:37:51;;;;;;;0.32;0.30;;;;;;;;;;4843114;29;20050;-87
2022/04/23 01:40:17;;;;;;;0.20;0.20;;;;;;;;;;4858348;29;20056;-86
2022/04/23 01:42:44;;;;;;;0.10;0.10;;;;;;;;;;4827449;29;20041;-86
2022/04/23 01:45:10;;;;;;;0.10;0.10;;;;;;;;;;4858274;29;20045;-86
2022/04/23 01:47:36;;;;;;;0.10;0.10;;;;;;;;;;4827513;29;20050;-86
2022/04/23 01:50:02;;;;;;;0.10;0.10;;;;;;;;;;4843008;29;20038;-86
2022/04/23 01:52:28;;;;;;;0.10;0.10;;;;;;;;;;4842520;29;20046;-86
2022/04/23 01:54:54;;;;;;;0.10;0.10;;;;;;;;;;4858044;29;20102;-86
2022/04/23 01:57:20;;;;;;;0.10;0.10;;;;;;;;;;4848459;29;20065;-87
2022/04/23 01:59:46;;;;;;;0.10;0.10;;;;;;;;;;4857783;29;20506;-87
2022/04/23 02:02:12;;;;;;;0.20;0.20;;;;;;;;;;4857778;29;20052;-86
2022/04/23 02:04:38;;;;;;;0.20;0.20;;;;;;;;;;4858071;29;20038;-87
2022/04/23 02:07:04;;;;;;;0.20;0.20;;;;;;;;;;4842455;29;20041;-85
2022/04/23 02:09:33;;;;;;;0.10;0.10;;;;;;;;;;4857762;29;20322;-86
2022/04/23 02:11:59;;;;;;;0.10;0.10;;;;;;;;;;4857534;29;20046;-86
2022/04/23 02:14:25;;;;;;;0.20;0.20;;;;;;;;;;4857973;29;20042;-86
2022/04/23 02:16:52;;;;;;;0.10;0.10;;;;;;;;;;4857634;29;20194;-87
2022/04/23 02:19:17;;;;;;;0.05;0.05;;;;;;;;;;4842931;29;20046;-87
2022/04/23 02:21:44;;;;;;;0.10;0.10;;;;;;;;;;4843641;29;20053;-85
2022/04/23 02:24:10;;;;;;;0.10;0.10;;;;;;;;;;4857825;29;20050;-86
2022/04/23 02:26:36;;;;;;;0.32;0.22;;;;;;;;;;4857566;29;20053;-87
2022/04/23 02:29:03;;;;;;;0.10;0.10;;;;;;;;;;4843311;29;20125;-86
2022/04/23 02:31:29;;;;;;;0.73;0.35;;;;;;;;;;4858593;29;20521;-87
2022/04/23 02:33:55;;;;;;;0.10;0.10;;;;;;;;;;4842502;29;20516;-87
2022/04/23 02:36:21;;;;;;;0.10;0.10;;;;;;;;;;4857263;29;20092;-86
2022/04/23 02:38:50;;;;;;;0.10;0.10;;;;;;;;;;4857228;29;20054;-87
2022/04/23 02:41:16;;;;;;;0.10;0.10;;;;;;;;;;4857228;29;20086;-86
2022/04/23 02:43:43;;;;;;;0.20;0.10;;;;;;;;;;4856756;29;20080;-87
2022/04/23 02:46:15;;;;;;;0.10;0.10;;;;;;;;;;4843136;29;20049;-86
2022/04/23 02:48:41;;;;;;;0.10;0.10;;;;;;;;;;4856646;29;20057;-86
2022/04/23 02:51:07;;;;;;;0.10;0.10;;;;;;;;;;4856842;29;20052;-86
2022/04/23 02:53:34;;;;;;;0.10;0.10;;;;;;;;;;4841827;29;20041;-86
2022/04/23 02:56:02;;;;;;;0.10;0.10;;;;;;;;;;4841767;29;20558;-86
2022/04/23 02:58:28;;;;;;;0.10;0.10;;;;;;;;;;4841143;29;20550;-86
2022/04/23 03:00:54;;;;;;;0.03;0.03;;;;;;;;;;4856871;29;20351;-86
2022/04/23 03:03:21;;;;;;;0.10;0.10;;;;;;;;;;4856689;29;20103;-86
2022/04/23 03:05:46;;;;;;;0.30;0.30;;;;;;;;;;4856798;29;20053;-86
2022/04/23 03:08:13;;;;;;;0.10;0.10;;;;;;;;;;4857004;29;20046;-86
2022/04/23 03:10:43;;;;;;;0.10;0.10;;;;;;;;;;4841158;29;20053;-86
2022/04/23 03:13:10;;;;;;;0.10;0.10;;;;;;;;;;4840643;29;20049;-86
2022/04/23 03:15:36;;;;;;;0.10;0.10;;;;;;;;;;4841211;29;20046;-85
2022/04/23 03:18:05;;;;;;;0.15;0.15;;;;;;;;;;4841124;29;20053;-85
2022/04/23 03:20:32;;;;;;;0.10;0.10;;;;;;;;;;4841124;29;20091;-86
2022/04/23 03:22:58;;;;;;;0.10;0.10;;;;;;;;;;4856513;29;20046;-86
2022/04/23 03:25:24;;;;;;;0.10;0.10;;;;;;;;;;4856392;29;20046;-87
2022/04/23 03:27:50;;;;;;;0.25;0.25;;;;;;;;;;4841253;29;20041;-86
2022/04/23 03:30:16;;;;;;;0.73;0.55;;;;;;;;;;4856255;29;20054;-86
2022/04/23 03:32:42;;;;;;;0.80;0.30;;;;;;;;;;4856133;29;20056;-86
2022/04/23 03:35:08;;;;;;;0.10;0.10;;;;;;;;;;4856202;29;20053;-86
2022/04/23 03:37:39;;;;;;;0.10;0.10;;;;;;;;;;4856330;29;20049;-86
2022/04/23 03:40:05;;;;;;;0.10;0.10;;;;;;;;;;4856201;29;20042;-84
2022/04/23 03:42:33;;;;;;;0.10;0.10;;;;;;;;;;4856105;29;20050;-86
2022/04/23 03:44:59;;;;;;;0.10;0.10;;;;;;;;;;4856451;29;20100;-86
2022/04/23 03:47:24;;;;;;;0.10;0.10;;;;;;;;;;4856008;29;20502;-86
2022/04/23 03:49:50;;;;;;;0.15;0.10;;;;;;;;;;4855961;29;20050;-87
2022/04/23 03:52:16;;;;;;;0.55;0.55;;;;;;;;;;4855974;29;20074;-86
2022/04/23 03:54:42;;;;;;;0.65;0.55;;;;;;;;;;4855509;29;20069;-86
2022/04/23 03:57:08;;;;;;;0.10;0.10;;;;;;;;;;4855701;29;20145;-86
2022/04/23 03:59:37;;;;;;;0.10;0.10;;;;;;;;;;4841719;29;20041;-86
2022/04/23 04:02:04;;;;;;;0.32;0.32;;;;;;;;;;4840229;29;20121;-86
2022/04/23 04:04:31;;;;;;;0.10;0.10;;;;;;;;;;4856017;29;20042;-87
2022/04/23 04:06:58;;;;;;;0.10;0.10;;;;;;;;;;4840477;29;20046;-87
2022/04/23 04:09:24;;;;;;;0.60;0.60;;;;;;;;;;4840175;29;20099;-86
2022/04/23 04:12:02;;;;;;;0.10;0.10;;;;;;;;;;4855630;29;20133;-86
2022/04/23 04:14:37;;;;;;;0.15;0.15;;;;;;;;;;4854124;29;20049;-87
2022/04/23 04:17:04;;;;;;;0.10;0.10;;;;;;;;;;4840043;29;20046;-87
2022/04/23 04:19:32;;;;;;;0.10;0.10;;;;;;;;;;4840362;29;20056;-91
2022/04/23 04:21:58;;;;;;;0.10;0.10;;;;;;;;;;4840287;29;20046;-86
2022/04/23 04:24:24;;;;;;;0.10;0.10;;;;;;;;;;4840102;29;20041;-86
2022/04/23 04:26:50;;;;;;;0.25;0.25;;;;;;;;;;4855478;29;20038;-86
2022/04/23 04:29:16;;;;;;;0.38;0.38;;;;;;;;;;4840148;29;20038;-87
2022/04/23 04:31:51;;;;;;;0.10;0.10;;;;;;;;;;4855858;29;20050;-86
2022/04/23 04:34:18;;;;;;;0.10;0.10;;;;;;;;;;4839041;29;20174;-86
2022/04/23 04:36:45;;;;;;;0.10;0.10;;;;;;;;;;4855500;29;20046;-86
2022/04/23 04:39:11;;;;;;;0.10;0.10;;;;;;;;;;4855341;29;20125;-87
2022/04/23 04:41:37;;;;;;;0.10;0.10;;;;;;;;;;4855190;29;20046;-87
2022/04/23 04:44:04;;;;;;;0.10;0.10;;;;;;;;;;4855526;29;20052;-86
2022/04/23 04:46:30;;;;;;;0.10;0.10;;;;;;;;;;4840047;29;20098;-85
2022/04/23 04:48:56;;;;;;;0.30;0.30;;;;;;;;;;4855405;29;20041;-86
2022/04/23 04:51:22;;;;;;;0.10;0.10;;;;;;;;;;4855462;29;20050;-85
2022/04/23 04:53:48;;;;;;;0.10;0.10;;;;;;;;;;4855240;29;20460;-86
2022/04/23 04:56:14;;;;;;;0.10;0.10;;;;;;;;;;4855384;29;20041;-87
2022/04/23 04:58:43;;;;;;;0.13;0.13;;;;;;;;;;4840031;29;20498;-86
2022/04/23 05:01:09;;;;;;;0.20;0.20;;;;;;;;;;4839446;29;20084;-86
2022/04/23 05:03:35;;;;;;;0.30;0.30;;;;;;;;;;4840021;29;20042;-86
2022/04/23 05:06:01;;;;;;;0.30;0.30;;;;;;;;;;4840857;29;20049;-87
2022/04/23 05:08:27;;;;;;;0.20;0.20;;;;;;;;;;4843244;29;20094;-86
2022/04/23 05:10:53;;;;;;;0.10;0.10;;;;;;;;;;4843344;29;20093;-87
2022/04/23 05:13:19;;;;;;;0.43;0.20;;;;;;;;;;4827971;29;20053;-86
2022/04/23 05:15:45;;;;;;;0.30;0.30;;;;;;;;;;4827961;29;20523;-86
2022/04/23 05:18:11;;;;;;;0.13;0.13;;;;;;;;;;4843228;29;20049;-86
2022/04/23 05:20:37;;;;;;;0.80;0.28;;;;;;;;;;4843400;29;20498;-86
2022/04/23 05:23:03;;;;;;;0.10;0.10;;;;;;;;;;4843277;29;20042;-86
2022/04/23 05:25:29;;;;;;;0.20;0.20;;;;;;;;;;4843147;29;20133;-86
2022/04/23 05:27:55;;;;;;;0.10;0.10;;;;;;;;;;4843142;29;20407;-86
2022/04/23 05:30:21;;;;;;;0.10;0.10;;;;;;;;;;4843847;29;20074;-86
2022/04/23 05:32:47;;;;;;;0.90;0.90;;;;;;;;;;4843218;29;20050;-86
2022/04/23 05:35:13;;;;;;;0.00;0.00;;;;;;;;;;4843290;29;20108;-86
2022/04/23 05:37:40;;;;;;;0.20;0.20;;;;;;;;;;4843021;29;20045;-88
2022/04/23 05:40:06;;;;;;;0.10;0.10;;;;;;;;;;4842788;29;20050;-88
2022/04/23 05:42:32;;;;;;;0.65;0.35;;;;;;;;;;4842645;29;20081;-88
2022/04/23 05:44:58;;;;;;;0.20;0.20;;;;;;;;;;4842863;29;20089;-88
2022/04/23 05:47:24;;;;;;;0.20;0.20;;;;;;;;;;4858191;29;20049;-88
2022/04/23 05:49:50;;;;;;;0.10;0.10;;;;;;;;;;4842685;29;20038;-88
2022/04/23 05:52:16;;;;;;;0.15;0.15;;;;;;;;;;4842802;29;20046;-88
2022/04/23 05:54:43;;;;;;;0.10;0.10;;;;;;;;;;4842753;29;20042;-88
2022/04/23 05:57:09;;;;;;;0.10;0.10;;;;;;;;;;4847104;29;20057;-88
2022/04/23 05:59:35;;;;;;;0.47;0.30;;;;;;;;;;4858193;29;20042;-88
2022/04/23 06:02:01;;;;;;;0.10;0.10;;;;;;;;;;4842483;29;20054;-88
2022/04/23 06:04:27;;;;;;;0.10;0.10;;;;;;;;;;4857810;29;20050;-88
2022/04/23 06:06:53;;;;;;;0.10;0.10;;;;;;;;;;4857710;29;20058;-88
2022/04/23 06:09:19;;;;;;;0.30;0.30;;;;;;;;;;4858153;29;20049;-88
2022/04/23 06:11:45;;;;;;;0.10;0.10;;;;;;;;;;4858010;29;20056;-88
2022/04/23 06:14:11;;;;;;;0.20;0.20;;;;;;;;;;4857834;29;20114;-88
2022/04/23 06:16:37;;;;;;;0.30;0.30;;;;;;;;;;4842421;29;20045;-86
2022/04/23 06:19:04;;;;;;;0.10;0.10;;;;;;;;;;4856918;29;20045;-87
2022/04/23 06:21:30;;;;;;;0.10;0.10;;;;;;;;;;4857491;29;20061;-87
2022/04/23 06:23:56;;;;;;;0.17;0.17;;;;;;;;;;4857853;29;20046;-86
2022/04/23 06:26:22;;;;;;;0.10;0.10;;;;;;;;;;4857443;29;20042;-86
2022/04/23 06:28:48;;;;;;;0.17;0.17;;;;;;;;;;4857446;29;20042;-86
2022/04/23 06:31:14;;;;;;;0.20;0.20;;;;;;;;;;4857453;29;20562;-86
2022/04/23 06:33:42;;;;;;;0.20;0.20;;;;;;;;;;4857558;29;20186;-85
2022/04/23 06:36:10;;;;;;;0.10;0.10;;;;;;;;;;4843195;29;20057;-86
2022/04/23 06:38:36;;;;;;;0.43;0.43;;;;;;;;;;4857243;29;20120;-86
2022/04/23 06:41:02;;;;;;;0.63;0.30;;;;;;;;;;4857418;29;20048;-85
2022/04/23 06:43:28;;;;;;;0.30;0.28;;;;;;;;;;4872378;29;20050;-86
2022/04/23 06:45:57;;;;;;;0.25;0.25;;;;;;;;;;4856550;29;20057;-85
2022/04/23 06:48:23;;;;;;;0.20;0.20;;;;;;;;;;4857107;29;20053;-85
2022/04/23 06:50:49;;;;;;;0.10;0.10;;;;;;;;;;4841718;29;20078;-85
2022/04/23 06:53:15;;;;;;;0.20;0.20;;;;;;;;;;4857006;29;20125;-84
2022/04/23 06:55:41;;;;;;;0.38;0.30;;;;;;;;;;4857014;29;20503;-85
2022/04/23 06:58:07;;;;;;;0.30;0.30;;;;;;;;;;4840714;29;20054;-85
2022/04/23 07:00:33;;;;;;;0.10;0.10;;;;;;;;;;4841246;29;20581;-85
2022/04/23 07:02:58;;;;;;;1.20;0.40;;;;;;;;;;4856592;29;20411;-86
2022/04/23 07:05:24;;;;;;;0.20;0.20;;;;;;;;;;4856610;29;20479;-86
2022/04/23 07:07:56;;;;;;;0.10;0.10;;;;;;;;;;4856737;29;20073;-86
2022/04/23 07:10:22;;;;;;;0.50;0.50;;;;;;;;;;4841284;29;20105;-85
2022/04/23 07:12:48;;;;;;;0.10;0.10;;;;;;;;;;4841478;29;20435;-86
2022/04/23 07:15:15;;;;;;;0.30;0.30;;;;;;;;;;4841480;29;20049;-88
2022/04/23 07:17:41;;;;;;;0.20;0.20;;;;;;;;;;4841013;29;20418;-86
2022/04/23 07:20:07;;;;;;;0.15;0.15;;;;;;;;;;4841076;29;20042;-85
2022/04/23 07:22:33;;;;;;;0.40;0.40;;;;;;;;;;4856704;29;20046;-85
2022/04/23 07:24:59;;;;;;;0.73;0.40;;;;;;;;;;4856478;29;20186;-85
2022/04/23 07:27:27;;;;;;;0.60;0.60;;;;;;;;;;4841152;29;20057;-86
2022/04/23 07:29:53;;;;;;;0.20;0.20;;;;;;;;;;4839994;29;20102;-85
2022/04/23 07:32:21;;;;;;;0.10;0.10;;;;;;;;;;4856027;29;20041;-86
2022/04/23 07:37:33;;;;;;;0.20;0.20;;;;;;;;;;4842294;29;20469;-86
2022/04/23 07:40:05;;;;;;;0.25;0.25;;;;;;;;;;4840341;29;20069;-86
2022/04/23 07:42:31;;;;;;;;;;;;;;;;;;4840784;29;20539;-85
2022/04/23 07:44:57;;;;;;;0.47;0.30;;;;;;;;;;4871685;29;20141;-86
2022/04/23 07:47:23;;;;;;;0.10;0.10;;;;;;;;;;4841997;29;20050;-86
2022/04/23 07:49:49;;;;;;;0.20;0.20;;;;;;;;;;4855974;29;20102;-86
2022/04/23 07:52:15;;;;;;;0.47;0.47;;;;;;;;;;4840970;29;20145;-85
2022/04/23 07:54:43;;;;;;;0.15;0.15;;;;;;;;;;4871376;29;20398;-85
2022/04/23 07:57:10;;;;;;;0.30;0.30;;;;;;;;;;4855293;29;20061;-86
2022/04/23 07:59:39;;;;;;;0.20;0.20;;;;;;;;;;4855810;29;20046;-86
2022/04/23 08:02:05;;;;;;;0.22;0.17;;;;;;;;;;4855870;29;20046;-85
2022/04/23 08:04:31;;;;;;;0.17;0.17;;;;;;;;;;4840842;29;20415;-86
2022/04/23 08:06:57;;;;;;;0.30;0.30;;;;;;;;;;4855800;29;20042;-85
2022/04/23 08:09:23;;;;;;;0.30;0.30;;;;;;;;;;4855591;29;20104;-86
2022/04/23 08:11:49;;;;;;;0.20;0.20;;;;;;;;;;4855501;29;20061;-85
2022/04/23 08:14:16;;;;;;;1.88;0.40;;;;;;;;;;4856165;29;20182;-86
2022/04/23 08:16:42;;;;;;;0.20;0.20;;;;;;;;;;4855833;29;20061;-85
2022/04/23 08:19:09;;;;;;;0.57;0.57;;;;;;;;;;4840315;29;20410;-86
2022/04/23 08:21:35;;;;;;;0.30;0.30;;;;;;;;;;4840102;29;20125;-86
2022/04/23 08:24:01;;;;;;;0.20;0.20;;;;;;;;;;4840165;29;20046;-85
2022/04/23 08:26:27;;;;;;;0.20;0.20;;;;;;;;;;4855234;29;20117;-85
2022/04/23 08:31:38;;;;;;;0.20;0.20;;;;;;;;;;4871129;29;20053;-86
2022/04/23 08:34:04;;;;;;;0.10;0.10;;;;;;;;;;4855720;29;20106;-86
2022/04/23 08:36:35;;;;;;;0.10;0.10;;;;;;;;;;4855431;29;20046;-86
2022/04/23 08:39:01;;;;;;;0.10;0.10;;;;;;;;;;4839544;29;20053;-86
2022/04/23 08:41:31;;;;;;;0.35;0.35;;;;;;;;;;4841594;29;20077;-86
2022/04/23 08:43:57;;;;;;;0.20;0.20;;;;;;;;;;4859299;29;20129;-85
2022/04/23 08:46:24;;;;;;;0.40;0.40;;;;;;;;;;4859162;29;20443;-85
2022/04/23 08:48:50;;;;;;;0.43;0.43;;;;;;;;;;4843985;29;20046;-86
2022/04/23 08:51:20;;;;;;;1.65;1.38;;;;;;;;;;4859131;29;20054;-86
2022/04/23 08:53:46;;;;;;;0.30;0.30;;;;;;;;;;4843072;29;20148;-85
2022/04/23 08:56:12;;;;;;;0.10;0.10;;;;;;;;;;4844309;29;20093;-87
2022/04/23 08:58:39;;;;;;;0.10;0.10;;;;;;;;;;4843364;29;20057;-86
2022/04/23 09:01:05;;;;;;;0.10;0.10;;;;;;;;;;4843778;29;20050;-86
2022/04/23 09:03:32;;;;;;;0.30;0.30;;;;;;;;;;4859121;29;20052;-86
2022/04/23 09:05:58;;;;;;;0.10;0.10;;;;;;;;;;4843355;29;20417;-87
2022/04/23 09:08:26;;;;;;;0.43;0.43;;;;;;;;;;4843465;29;20057;-86
2022/04/23 09:10:54;;;;;;;0.20;0.20;;;;;;;;;;4828832;29;20058;-86
2022/04/23 09:13:31;;;;;;;0.20;0.20;;;;;;;;;;4843169;29;20524;-84
2022/04/23 09:24:16;;;;;;;0.30;0.30;;;;;;;;;;4844485;29;20133;-84
2022/04/23 09:26:42;;;;;;;0.30;0.30;;;;;;;;;;4843062;29;20129;-84
2022/04/23 09:29:15;;;;;;;0.55;0.50;;;;;;;;;;4843437;29;20098;-83
2022/04/23 09:31:42;;;;;;;0.20;0.20;;;;;;;;;;4842915;29;20046;-83
2022/04/23 09:34:15;;;;;;;0.60;0.50;;;;;;;;;;4843000;29;20046;-84
2022/04/23 09:36:48;;;;;;;0.20;0.20;;;;;;;;;;4842714;29;20058;-85
2022/04/23 09:39:14;;;;;;;0.20;0.20;;;;;;;;;;4842955;29;20102;-84
2022/04/23 09:41:40;;;;;;;0.20;0.20;;;;;;;;;;4858028;29;20053;-84
2022/04/23 09:44:07;;;;;;;0.20;0.20;;;;;;;;;;4842772;29;20046;-84
2022/04/23 09:46:43;;;;;;;0.10;0.10;;;;;;;;;;4827207;29;20042;-84
2022/04/23 09:49:09;;;;;;;1.10;0.30;;;;;;;;;;4842738;29;20056;-84
2022/04/23 09:51:35;;;;;;;0.20;0.20;;;;;;;;;;4842592;29;20132;-84
2022/04/23 09:54:02;;;;;;;0.20;0.20;;;;;;;;;;4841468;29;20054;-84
2022/04/23 09:56:28;;;;;;;0.20;0.20;;;;;;;;;;4842515;29;20049;-84
2022/04/23 09:58:54;;;;;;;0.30;0.30;;;;;;;;;;4842796;29;20458;-84
2022/04/23 10:01:21;;;;;;;0.30;0.30;;;;;;;;;;4858052;29;20054;-86
2022/04/23 10:03:49;;;;;;;0.17;0.17;;;;;;;;;;4827057;29;20057;-84
2022/04/23 10:06:16;;;;;;;0.20;0.20;;;;;;;;;;4842564;29;20139;-85
2022/04/23 10:08:44;;;;;;;0.20;0.20;;;;;;;;;;4827167;29;20446;-85
2022/04/23 10:11:24;;;;;;;0.50;0.50;;;;;;;;;;4842333;29;20132;-86
2022/04/23 10:13:54;;;;;;;0.10;0.10;;;;;;;;;;4842938;29;20415;-85
2022/04/23 10:16:20;;;;;;;0.30;0.30;;;;;;;;;;4842657;29;20057;-85
2022/04/23 10:18:47;;;;;;;0.30;0.30;;;;;;;;;;4827023;29;20390;-85
2022/04/23 10:21:17;;;;;;;0.20;0.20;;;;;;;;;;4842064;29;20085;-85
2022/04/23 10:23:46;;;;;;;0.40;0.30;;;;;;;;;;4842009;29;20078;-85
2022/04/23 10:26:33;;;;;;;0.43;0.30;;;;;;;;;;4827291;29;20344;-87
2022/04/23 10:28:59;;;;;;;0.10;0.10;;;;;;;;;;4842286;29;20053;-86
2022/04/23 10:31:25;;;;;;;0.22;0.22;;;;;;;;;;4842048;29;20053;-86
2022/04/23 10:33:54;;;;;;;0.20;0.20;;;;;;;;;;4842049;29;20050;-86
2022/04/23 10:36:20;;;;;;;0.20;0.20;;;;;;;;;;4826290;29;20057;-87
2022/04/23 10:38:51;;;;;;;0.20;0.20;;;;;;;;;;4826785;29;20487;-87
2022/04/23 10:41:18;;;;;;;0.10;0.10;;;;;;;;;;4841316;29;20058;-88
2022/04/23 10:43:58;;;;;;;0.30;0.30;;;;;;;;;;4826464;29;20042;-87
2022/04/23 10:46:49;;;;;;;0.25;0.25;;;;;;;;;;4826724;29;20457;-87
2022/04/23 10:49:15;;;;;;;0.13;0.13;;;;;;;;;;4842124;29;20041;-86
2022/04/23 10:51:48;;;;;;;0.30;0.30;;;;;;;;;;4857546;29;20565;-87
2022/04/23 10:54:16;;;;;;;0.57;0.57;;;;;;;;;;4843770;29;20049;-87
2022/04/23 10:56:42;;;;;;;0.20;0.20;;;;;;;;;;4827785;29;20093;-87
2022/04/23 10:59:28;;;;;;;0.30;0.30;;;;;;;;;;4858135;29;20057;-89
2022/04/23 11:01:55;;;;;;;0.40;0.40;;;;;;;;;;4844558;29;20054;-89
2022/04/23 11:04:21;;;;;;;0.10;0.10;;;;;;;;;;4867355;29;20077;-91
2022/04/23 11:12:45;;;;;;;;;;;;;;;;;;4855511;29;20066;-89
2022/04/23 11:15:15;;;;;;;0.30;0.20;;;;;;;;;;4872893;29;19929;-90
2022/04/23 11:17:44;;;;;;;0.20;0.20;;;;;;;;;;4857246;29;20046;-89
2022/04/23 11:20:11;;;;;;;0.63;0.55;;;;;;;;;;4842195;29;20458;-90
2022/04/23 11:22:36;;;;;;;0.70;0.35;;;;;;;;;;4857941;29;20045;-89
2022/04/23 11:25:03;;;;;;;0.20;0.20;;;;;;;;;;4857564;29;20456;-89
2022/04/23 11:27:29;;;;;;;0.30;0.30;;;;;;;;;;4857211;29;20042;-90
2022/04/23 11:29:56;;;;;;;0.10;0.10;;;;;;;;;;4857323;29;20079;-89
2022/04/23 11:32:26;;;;;;;0.40;0.40;;;;;;;;;;4857168;29;20486;-90
2022/04/23 11:34:56;;;;;;;0.30;0.30;;;;;;;;;;4856876;29;20426;-89
2022/04/23 11:37:33;;;;;;;0.52;0.30;;;;;;;;;;4856971;29;20042;-89
2022/04/23 11:40:12;;;;;;;0.57;0.55;;;;;;;;;;4871429;29;20046;-89
2022/04/23 11:42:42;;;;;;;0.20;0.20;;;;;;;;;;4856427;29;20084;-91
2022/04/23 11:45:08;;;;;;;0.20;0.20;;;;;;;;;;4856467;29;20376;-89
2022/04/23 11:47:34;;;;;;;0.47;0.47;;;;;;;;;;4840824;29;20490;-89
2022/04/23 11:50:10;;;;;;;0.30;0.30;;;;;;;;;;4856466;29;20097;-89
2022/04/23 11:52:39;;;;;;;0.80;0.35;;;;;;;;;;4856102;29;20045;-89
2022/04/23 11:55:08;;;;;;;0.38;0.22;;;;;;;;;;4840947;29;20508;-90
2022/04/23 11:57:35;;;;;;;0.20;0.20;;;;;;;;;;4841198;29;20118;-89
2022/04/23 12:00:02;;;;;;;0.20;0.20;;;;;;;;;;4840826;29;20137;-90
2022/04/23 12:02:28;;;;;;;0.28;0.28;;;;;;;;;;4841253;29;20372;-90
2022/04/23 12:04:55;;;;;;;0.20;0.20;;;;;;;;;;4840645;29;20049;-90
2022/04/23 12:07:21;;;;;;;0.30;0.30;;;;;;;;;;4840764;29;20077;-89
2022/04/23 12:09:51;;;;;;;0.20;0.20;;;;;;;;;;4840724;29;20085;-89
2022/04/23 12:12:20;;;;;;;0.10;0.10;;;;;;;;;;4856178;29;20056;-90
2022/04/23 12:14:47;;;;;;;0.20;0.20;;;;;;;;;;4840154;29;20113;-88
2022/04/23 12:17:23;;;;;;;0.20;0.20;;;;;;;;;;4839868;29;20045;-89
2022/04/23 12:19:53;;;;;;;0.10;0.10;;;;;;;;;;4840569;29;20042;-90
2022/04/23 12:22:29;;;;;;;0.15;0.15;;;;;;;;;;4855752;29;20058;-90
2022/04/23 12:25:07;;;;;;;0.20;0.20;;;;;;;;;;4855884;29;20125;-89
2022/04/23 12:27:52;;;;;;;0.20;0.20;;;;;;;;;;4856923;29;20486;-92
2022/04/23 12:41:24;;;;;;;0.20;0.20;;;;;;;;;;4853649;29;20402;-89
2022/04/23 12:43:52;;;;;;;0.10;0.10;;;;;;;;;;4840258;29;20054;-91
2022/04/23 12:46:18;;;;;;;0.63;0.30;;;;;;;;;;4855388;29;20106;-89
2022/04/23 12:48:59;;;;;;;0.20;0.20;;;;;;;;;;4840221;29;20041;-89
2022/04/23 12:51:25;;;;;;;1.70;1.60;;;;;;;;;;4855518;29;20085;-89
2022/04/23 12:53:51;;;;;;;0.30;0.30;;;;;;;;;;4825230;29;20050;-90
2022/04/23 12:56:19;;;;;;;0.38;0.38;;;;;;;;;;4855590;29;20049;-89
2022/04/23 12:58:45;;;;;;;0.20;0.20;;;;;;;;;;4825361;29;20402;-89
2022/04/23 13:01:12;;;;;;;0.20;0.20;;;;;;;;;;4840144;29;20054;-89
2022/04/23 13:03:44;;;;;;;1.02;0.25;;;;;;;;;;4840048;29;20438;-89
2022/04/23 13:08:55;;;;;;;0.20;0.20;;;;;;;;;;4855894;29;20296;-89
2022/04/23 13:11:27;;;;;;;0.20;0.20;;;;;;;;;;4825040;29;20174;-89
2022/04/23 13:14:00;;;;;;;0.10;0.10;;;;;;;;;;4839288;29;20121;-89
2022/04/23 13:16:27;;;;;;;0.40;0.40;;;;;;;;;;4839845;29;20371;-89
2022/04/23 13:18:57;;;;;;;0.20;0.20;;;;;;;;;;4839680;29;20118;-89
2022/04/23 13:21:26;;;;;;;0.20;0.20;;;;;;;;;;4838966;29;20045;-89
2022/04/23 13:23:53;;;;;;;0.20;0.20;;;;;;;;;;4839664;29;20042;-88
2022/04/23 13:26:19;;;;;;;0.20;0.20;;;;;;;;;;4824430;29;20078;-89
2022/04/23 13:28:45;;;;;;;0.20;0.20;;;;;;;;;;4827991;29;20050;-90
2022/04/23 13:31:12;;;;;;;0.10;0.10;;;;;;;;;;4843260;29;20081;-88
2022/04/23 13:33:39;;;;;;;0.35;0.35;;;;;;;;;;4843405;29;20468;-89
2022/04/23 13:36:06;;;;;;;0.10;0.10;;;;;;;;;;4843141;29;20486;-89
2022/04/23 13:38:32;;;;;;;0.20;0.20;;;;;;;;;;4827546;29;20046;-89
2022/04/23 13:40:58;;;;;;;0.10;0.10;;;;;;;;;;4843265;29;20114;-90
2022/04/23 13:43:24;;;;;;;0.20;0.20;;;;;;;;;;4843315;29;20073;-92
2022/04/23 13:45:50;;;;;;;0.10;0.10;;;;;;;;;;4843546;29;20046;-90
2022/04/23 13:48:17;;;;;;;0.10;0.10;;;;;;;;;;4843369;29;20459;-90
2022/04/23 13:50:43;;;;;;;0.28;0.28;;;;;;;;;;4827664;29;20060;-90
2022/04/23 13:53:10;;;;;;;0.10;0.10;;;;;;;;;;4843481;29;20046;-90
2022/04/23 13:55:36;;;;;;;0.55;0.52;;;;;;;;;;4842805;29;20046;-90
2022/04/23 13:58:03;;;;;;;0.50;0.50;;;;;;;;;;4853954;29;20145;-89
2022/04/23 14:00:29;;;;;;;0.10;0.10;;;;;;;;;;4858692;29;20579;-91
2022/04/23 14:11:09;;;;;;;0.10;0.10;;;;;;;;;;4874056;29;20053;-90
2022/04/23 14:13:35;;;;;;;0.20;0.20;;;;;;;;;;4842531;29;20046;-89
2022/04/23 14:16:01;;;;;;;0.10;0.10;;;;;;;;;;4858002;29;20094;-93
2022/04/23 14:18:27;;;;;;;0.40;0.40;;;;;;;;;;4844083;29;20057;-93
2022/04/23 14:20:53;;;;;;;0.10;0.10;;;;;;;;;;4843252;29;20050;-90
2022/04/23 14:23:19;;;;;;;0.17;0.17;;;;;;;;;;4842564;29;20045;-91
2022/04/23 14:25:46;;;;;;;0.63;0.63;;;;;;;;;;4842920;29;20426;-90
2022/04/23 14:28:13;;;;;;;0.40;0.40;;;;;;;;;;4842797;29;20085;-92
2022/04/23 14:30:40;;;;;;;0.10;0.10;;;;;;;;;;4842177;29;20057;-94
2022/04/23 14:33:06;;;;;;;0.32;0.32;;;;;;;;;;4843349;29;20057;-92
2022/04/23 14:35:34;;;;;;;0.10;0.10;;;;;;;;;;4842101;29;20050;-89
2022/04/23 14:38:00;;;;;;;0.10;0.10;;;;;;;;;;4841510;29;20638;-88
2022/04/23 14:40:26;;;;;;;0.20;0.20;;;;;;;;;;4856779;29;20057;-88
2022/04/23 14:42:55;;;;;;;0.20;0.20;;;;;;;;;;4857190;29;20042;-89
2022/04/23 14:45:21;;;;;;;0.10;0.10;;;;;;;;;;4857447;29;20054;-93
2022/04/23 14:47:47;;;;;;;0.20;0.20;;;;;;;;;;4857809;29;20064;-91
2022/04/23 14:50:13;;;;;;;0.10;0.10;;;;;;;;;;4858139;29;20086;-91
2022/04/23 14:55:24;;;;;;;0.10;0.10;;;;;;;;;;4855882;29;20046;-90
2022/04/23 14:57:50;;;;;;;0.35;0.30;;;;;;;;;;4858372;29;20460;-91
2022/04/23 15:00:17;;;;;;;0.15;0.15;;;;;;;;;;4843525;29;20098;-90
2022/04/23 15:02:43;;;;;;;0.20;0.20;;;;;;;;;;4859246;29;20124;-91
2022/04/23 15:05:09;;;;;;;0.10;0.10;;;;;;;;;;4869471;29;20046;-89
2022/04/23 15:07:35;;;;;;;0.20;0.20;;;;;;;;;;4875135;29;20502;-90
2022/04/23 15:10:01;;;;;;;0.90;0.68;;;;;;;;;;4855609;29;20042;-92
2022/04/23 15:12:27;;;;;;;0.20;0.20;;;;;;;;;;4859270;29;20042;-87
2022/04/23 15:14:54;;;;;;;0.20;0.20;;;;;;;;;;4858689;29;20125;-89
2022/04/23 15:17:20;;;;;;;0.45;0.20;;;;;;;;;;4860073;29;20122;-87
2022/04/23 15:19:48;;;;;;;0.15;0.15;;;;;;;;;;4841760;29;20057;-87
2022/04/23 15:22:14;;;;;;;0.17;0.17;;;;;;;;;;4840554;29;20101;-86
2022/04/23 15:24:40;;;;;;;0.20;0.20;;;;;;;;;;4871333;29;20057;-88
2022/04/23 15:27:06;;;;;;;0.10;0.10;;;;;;;;;;4841006;29;20050;-89
2022/04/23 15:29:32;;;;;;;0.20;0.20;;;;;;;;;;4841198;29;20610;-89
2022/04/23 15:31:58;;;;;;;0.63;0.63;;;;;;;;;;4856493;29;20426;-89